Time;durP1;ratioP1;P1;durP2;ratioP2;P2;SDS_P1;SDS_P2;PMS_P1;PMS_P2;Temp;Humidity;BMP_temperature;BMP_pressure;BME280_temperature;BME280_humidity;BME280_pressure;Samples;Min_cycle;Max_cycle;Signal;HPM_P1;HPM_P2
2021/09/04 00:01:15;;;;;;;6.28;3.30;;;;;;;;;;5033922;28;20091;-57
2021/09/04 00:03:41;;;;;;;10.05;4.50;;;;;;;;;;5033458;28;20071;-56
2021/09/04 00:06:07;;;;;;;11.68;4.75;;;;;;;;;;5034335;28;20460;-56
2021/09/04 00:08:33;;;;;;;8.13;4.28;;;;;;;;;;5031400;28;20017;-57
2021/09/04 00:10:59;;;;;;;6.00;3.85;;;;;;;;;;5033758;28;20352;-56
2021/09/04 00:13:25;;;;;;;7.00;4.20;;;;;;;;;;5033214;28;20036;-55
2021/09/04 00:15:51;;;;;;;6.55;3.78;;;;;;;;;;5033498;28;20470;-56
2021/09/04 00:18:17;;;;;;;12.95;4.05;;;;;;;;;;5033548;28;20057;-56
2021/09/04 00:20:43;;;;;;;6.07;4.00;;;;;;;;;;5034131;28;20031;-57
2021/09/04 00:23:09;;;;;;;8.82;3.67;;;;;;;;;;5032279;28;20100;-56
2021/09/04 00:25:35;;;;;;;8.10;3.75;;;;;;;;;;5032841;28;20029;-57
2021/09/04 00:28:01;;;;;;;9.55;4.40;;;;;;;;;;5033551;28;20430;-56
2021/09/04 00:30:27;;;;;;;7.35;4.10;;;;;;;;;;5033566;28;20032;-57
2021/09/04 00:32:53;;;;;;;6.43;3.50;;;;;;;;;;5033205;28;20363;-57
2021/09/04 00:35:19;;;;;;;9.38;3.90;;;;;;;;;;5032928;28;20067;-56
2021/09/04 00:37:45;;;;;;;10.50;4.43;;;;;;;;;;5032661;28;20423;-56
2021/09/04 00:40:11;;;;;;;7.38;4.40;;;;;;;;;;5032809;28;20052;-56
2021/09/04 00:42:37;;;;;;;7.47;4.43;;;;;;;;;;5033862;28;20033;-56
2021/09/04 00:45:04;;;;;;;8.20;3.80;;;;;;;;;;5032305;28;20018;-56
2021/09/04 00:47:30;;;;;;;7.03;4.15;;;;;;;;;;5033329;28;20416;-57
2021/09/04 00:49:56;;;;;;;11.68;4.25;;;;;;;;;;5033110;28;20025;-56
2021/09/04 00:52:22;;;;;;;7.80;4.25;;;;;;;;;;5031558;28;20038;-57
2021/09/04 00:54:49;;;;;;;9.02;4.20;;;;;;;;;;5031717;28;20512;-56
2021/09/04 00:57:16;;;;;;;8.77;4.05;;;;;;;;;;5033436;28;20087;-56
2021/09/04 00:59:42;;;;;;;9.65;4.05;;;;;;;;;;5032873;28;20443;-56
2021/09/04 01:02:08;;;;;;;7.93;4.05;;;;;;;;;;5032464;28;20167;-56
2021/09/04 01:04:34;;;;;;;6.95;3.60;;;;;;;;;;5032445;28;20175;-56
2021/09/04 01:07:00;;;;;;;6.97;3.92;;;;;;;;;;5033373;28;20124;-56
2021/09/04 01:09:26;;;;;;;5.70;3.28;;;;;;;;;;5031654;28;20370;-56
2021/09/04 01:11:52;;;;;;;7.85;4.13;;;;;;;;;;5032469;28;20160;-57
2021/09/04 01:14:18;;;;;;;6.25;3.47;;;;;;;;;;5032452;28;20404;-56
2021/09/04 01:16:44;;;;;;;7.45;3.63;;;;;;;;;;5033088;28;20029;-56
2021/09/04 01:19:10;;;;;;;7.88;3.90;;;;;;;;;;5033122;28;20021;-56
2021/09/04 01:21:37;;;;;;;7.32;4.20;;;;;;;;;;5032573;28;20032;-56
2021/09/04 01:24:03;;;;;;;7.28;4.03;;;;;;;;;;5030931;28;20076;-56
2021/09/04 01:26:30;;;;;;;8.38;4.03;;;;;;;;;;5032445;28;20030;-56
2021/09/04 01:28:56;;;;;;;6.05;3.22;;;;;;;;;;5031523;28;20120;-56
2021/09/04 01:31:23;;;;;;;9.55;4.28;;;;;;;;;;5032985;28;20030;-57
2021/09/04 01:33:49;;;;;;;9.60;3.90;;;;;;;;;;5032189;28;20116;-56
2021/09/04 01:36:27;;;;;;;9.07;4.57;;;;;;;;;;5032731;28;20021;-56
2021/09/04 01:38:53;;;;;;;8.63;3.97;;;;;;;;;;5031167;28;20459;-56
2021/09/04 01:41:19;;;;;;;6.78;3.45;;;;;;;;;;5047472;28;20040;-56
2021/09/04 01:43:45;;;;;;;7.72;3.92;;;;;;;;;;5031992;28;20072;-56
2021/09/04 01:46:11;;;;;;;9.57;4.53;;;;;;;;;;5032777;28;20037;-56
2021/09/04 01:48:37;;;;;;;6.28;3.75;;;;;;;;;;5032477;28;20329;-56
2021/09/04 01:51:03;;;;;;;8.65;4.38;;;;;;;;;;5032784;28;20033;-56
2021/09/04 01:53:29;;;;;;;9.52;4.68;;;;;;;;;;5031265;28;20435;-56
2021/09/04 01:55:55;;;;;;;8.25;3.90;;;;;;;;;;5031149;28;20036;-56
2021/09/04 01:58:21;;;;;;;7.20;3.90;;;;;;;;;;5032619;28;20030;-56
2021/09/04 02:00:47;;;;;;;6.15;3.97;;;;;;;;;;5032676;28;20101;-56
2021/09/04 02:03:13;;;;;;;7.47;4.00;;;;;;;;;;5032598;28;20440;-56
2021/09/04 02:05:39;;;;;;;10.50;4.55;;;;;;;;;;5031908;28;20022;-57
2021/09/04 02:08:05;;;;;;;4.93;3.50;;;;;;;;;;5031998;28;20040;-56
2021/09/04 02:10:31;;;;;;;6.85;3.92;;;;;;;;;;5025223;28;20251;-57
2021/09/04 02:12:57;;;;;;;6.55;3.90;;;;;;;;;;5032171;28;20033;-57
2021/09/04 02:15:23;;;;;;;11.05;4.72;;;;;;;;;;5035734;28;20026;-56
2021/09/04 02:17:49;;;;;;;7.25;4.35;;;;;;;;;;5036094;28;20025;-56
2021/09/04 02:20:15;;;;;;;10.20;4.50;;;;;;;;;;5036229;28;20040;-57
2021/09/04 02:22:41;;;;;;;7.18;4.32;;;;;;;;;;5035253;28;20021;-57
2021/09/04 02:25:08;;;;;;;7.40;4.28;;;;;;;;;;5049521;28;20116;-56
2021/09/04 02:27:34;;;;;;;7.55;3.95;;;;;;;;;;5035789;28;20052;-56
2021/09/04 02:30:00;;;;;;;9.10;4.45;;;;;;;;;;5036005;28;20030;-57
2021/09/04 02:32:26;;;;;;;20.75;4.43;;;;;;;;;;5035336;28;20029;-57
2021/09/04 02:34:52;;;;;;;6.97;3.50;;;;;;;;;;5035224;28;20466;-56
2021/09/04 02:37:18;;;;;;;8.48;4.38;;;;;;;;;;5035248;28;20063;-56
2021/09/04 02:39:44;;;;;;;7.65;4.13;;;;;;;;;;5034189;28;20463;-56
2021/09/04 02:42:11;;;;;;;8.40;4.13;;;;;;;;;;5035656;28;20105;-56
2021/09/04 02:44:37;;;;;;;6.82;3.83;;;;;;;;;;5035109;28;20026;-56
2021/09/04 02:47:03;;;;;;;9.40;4.38;;;;;;;;;;5035303;28;20389;-57
2021/09/04 02:49:29;;;;;;;7.68;4.03;;;;;;;;;;5035766;28;20025;-57
2021/09/04 02:51:55;;;;;;;8.43;4.20;;;;;;;;;;5034958;28;20025;-56
2021/09/04 02:54:21;;;;;;;7.38;3.97;;;;;;;;;;5034311;28;20037;-56
2021/09/04 02:56:47;;;;;;;9.25;3.80;;;;;;;;;;5034285;28;20382;-56
2021/09/04 02:59:13;;;;;;;6.38;3.80;;;;;;;;;;5035358;28;20022;-56
2021/09/04 03:01:39;;;;;;;11.98;4.43;;;;;;;;;;5035352;28;20037;-56
2021/09/04 03:04:05;;;;;;;5.15;3.58;;;;;;;;;;5033238;28;20030;-56
2021/09/04 03:06:31;;;;;;;7.30;3.88;;;;;;;;;;5034533;28;20038;-56
2021/09/04 03:08:57;;;;;;;7.47;4.10;;;;;;;;;;5034516;28;20025;-56
2021/09/04 03:11:23;;;;;;;7.65;3.92;;;;;;;;;;5034476;28;20121;-57
2021/09/04 03:13:52;;;;;;;12.65;4.40;;;;;;;;;;5032668;28;20043;-56
2021/09/04 03:16:18;;;;;;;6.75;3.55;;;;;;;;;;5035121;28;20462;-56
2021/09/04 03:18:44;;;;;;;12.10;4.13;;;;;;;;;;5035505;28;20021;-56
2021/09/04 03:21:10;;;;;;;8.43;3.90;;;;;;;;;;5035043;28;20026;-57
2021/09/04 03:23:36;;;;;;;8.65;4.30;;;;;;;;;;5032658;28;20029;-56
2021/09/04 03:26:02;;;;;;;7.20;4.15;;;;;;;;;;5033235;28;20112;-56
2021/09/04 03:28:28;;;;;;;7.70;3.88;;;;;;;;;;5034511;28;20038;-56
2021/09/04 03:30:54;;;;;;;8.63;4.35;;;;;;;;;;5034827;28;20036;-56
2021/09/04 03:33:20;;;;;;;6.53;3.60;;;;;;;;;;5033979;28;20088;-56
2021/09/04 03:35:46;;;;;;;7.00;3.63;;;;;;;;;;5034366;28;20061;-56
2021/09/04 03:38:12;;;;;;;7.80;3.90;;;;;;;;;;5034057;28;20018;-57
2021/09/04 03:40:38;;;;;;;6.28;4.13;;;;;;;;;;5033607;28;20517;-57
2021/09/04 03:43:04;;;;;;;8.18;3.95;;;;;;;;;;5034646;28;20040;-56
2021/09/04 03:45:30;;;;;;;8.00;4.00;;;;;;;;;;5032738;28;20021;-57
2021/09/04 03:47:56;;;;;;;8.88;4.18;;;;;;;;;;5034254;28;20045;-56
2021/09/04 03:50:22;;;;;;;13.57;4.00;;;;;;;;;;5034602;28;20021;-56
2021/09/04 03:52:48;;;;;;;6.57;3.53;;;;;;;;;;5034310;28;20025;-56
2021/09/04 03:55:14;;;;;;;7.55;3.85;;;;;;;;;;5032572;28;20017;-56
2021/09/04 03:57:40;;;;;;;9.95;3.65;;;;;;;;;;5033908;28;20028;-57
2021/09/04 04:00:07;;;;;;;8.52;4.28;;;;;;;;;;5034162;28;20104;-56
2021/09/04 04:02:33;;;;;;;9.77;4.25;;;;;;;;;;5034140;28;20030;-56
2021/09/04 04:04:59;;;;;;;7.97;4.20;;;;;;;;;;5033503;28;20025;-56
2021/09/04 04:07:25;;;;;;;9.40;3.88;;;;;;;;;;5033826;28;20127;-56
2021/09/04 04:09:51;;;;;;;8.75;4.13;;;;;;;;;;5033693;28;20044;-56
2021/09/04 04:12:17;;;;;;;5.40;3.80;;;;;;;;;;5032986;28;20450;-56
2021/09/04 04:14:42;;;;;;;7.65;4.50;;;;;;;;;;5033131;28;20025;-57
2021/09/04 04:17:08;;;;;;;10.20;4.97;;;;;;;;;;5033813;28;20039;-56
2021/09/04 04:19:34;;;;;;;6.35;3.55;;;;;;;;;;5034329;28;20021;-56
2021/09/04 04:22:00;;;;;;;7.32;3.70;;;;;;;;;;5033645;28;20076;-57
2021/09/04 04:24:26;;;;;;;8.55;4.13;;;;;;;;;;5031358;28;20510;-56
2021/09/04 04:26:52;;;;;;;8.95;4.03;;;;;;;;;;5032832;28;20120;-56
2021/09/04 04:29:18;;;;;;;8.93;4.20;;;;;;;;;;5033743;28;20121;-56
2021/09/04 04:31:44;;;;;;;9.25;3.72;;;;;;;;;;5033877;28;20056;-56
2021/09/04 04:34:10;;;;;;;9.52;4.10;;;;;;;;;;5032698;28;20032;-56
2021/09/04 04:36:36;;;;;;;8.32;4.18;;;;;;;;;;5033188;28;20025;-56
2021/09/04 04:39:02;;;;;;;7.47;4.20;;;;;;;;;;5032929;28;20028;-56
2021/09/04 04:41:28;;;;;;;11.73;4.57;;;;;;;;;;5032416;28;20025;-56
2021/09/04 04:43:54;;;;;;;11.15;4.38;;;;;;;;;;5030853;28;20329;-56
2021/09/04 04:46:20;;;;;;;9.82;4.25;;;;;;;;;;5033707;28;20028;-56
2021/09/04 04:48:46;;;;;;;9.57;4.47;;;;;;;;;;5033283;28;20033;-56
2021/09/04 04:51:12;;;;;;;8.73;4.35;;;;;;;;;;5033415;28;20090;-56
2021/09/04 04:53:39;;;;;;;9.02;4.85;;;;;;;;;;5031973;28;20034;-57
2021/09/04 04:56:05;;;;;;;8.20;4.60;;;;;;;;;;5032122;28;20056;-55
2021/09/04 04:58:31;;;;;;;8.52;3.92;;;;;;;;;;5032920;28;20037;-56
2021/09/04 05:00:57;;;;;;;7.93;4.70;;;;;;;;;;5033087;28;20032;-56
2021/09/04 05:03:24;;;;;;;9.98;4.70;;;;;;;;;;5032298;28;20025;-56
2021/09/04 05:05:50;;;;;;;7.78;4.22;;;;;;;;;;5033286;28;20029;-56
2021/09/04 05:08:16;;;;;;;8.32;4.13;;;;;;;;;;5033437;28;20052;-56
2021/09/04 05:10:42;;;;;;;7.20;3.50;;;;;;;;;;5032080;28;20029;-57
2021/09/04 05:13:08;;;;;;;9.55;4.07;;;;;;;;;;5032110;28;20034;-56
2021/09/04 05:15:34;;;;;;;6.13;3.83;;;;;;;;;;5032614;28;20028;-56
2021/09/04 05:18:00;;;;;;;11.05;4.25;;;;;;;;;;5033066;28;20068;-56
2021/09/04 05:20:26;;;;;;;8.57;4.13;;;;;;;;;;5033169;28;20037;-56
2021/09/04 05:22:52;;;;;;;11.25;4.50;;;;;;;;;;5032748;28;20431;-57
2021/09/04 05:25:18;;;;;;;8.98;4.38;;;;;;;;;;5031581;28;20028;-56
2021/09/04 05:27:45;;;;;;;6.30;4.10;;;;;;;;;;5031157;28;20076;-56
2021/09/04 05:30:11;;;;;;;8.68;4.07;;;;;;;;;;5032928;28;20110;-56
2021/09/04 05:32:37;;;;;;;7.72;3.97;;;;;;;;;;5032595;28;20451;-56
2021/09/04 05:35:04;;;;;;;7.28;4.15;;;;;;;;;;5032092;28;20565;-56
2021/09/04 05:37:30;;;;;;;11.07;4.13;;;;;;;;;;5031277;28;20112;-56
2021/09/04 05:39:56;;;;;;;9.77;4.60;;;;;;;;;;5032022;28;20104;-56
2021/09/04 05:42:22;;;;;;;8.38;3.72;;;;;;;;;;5031556;28;20044;-56
2021/09/04 05:44:49;;;;;;;8.13;4.10;;;;;;;;;;5032118;28;20020;-56
2021/09/04 05:47:14;;;;;;;7.03;3.78;;;;;;;;;;5033401;28;20041;-57
2021/09/04 05:49:40;;;;;;;9.05;4.25;;;;;;;;;;5036467;28;20120;-57
2021/09/04 05:52:07;;;;;;;8.30;3.72;;;;;;;;;;5036905;28;20034;-56
2021/09/04 05:54:33;;;;;;;9.00;3.85;;;;;;;;;;5035195;28;20032;-57
2021/09/04 05:56:59;;;;;;;6.10;3.83;;;;;;;;;;5035929;28;20096;-57
2021/09/04 05:59:25;;;;;;;7.50;4.22;;;;;;;;;;5052018;28;20029;-57
2021/09/04 06:01:51;;;;;;;7.43;3.58;;;;;;;;;;5036998;28;20101;-57
2021/09/04 06:04:17;;;;;;;10.98;4.05;;;;;;;;;;5035359;28;20018;-57
2021/09/04 06:06:43;;;;;;;9.80;4.70;;;;;;;;;;5036426;28;20447;-56
2021/09/04 06:09:09;;;;;;;12.23;5.03;;;;;;;;;;5035677;28;20022;-57
2021/09/04 06:11:35;;;;;;;8.23;4.30;;;;;;;;;;5035554;28;20491;-56
2021/09/04 06:14:01;;;;;;;9.95;4.70;;;;;;;;;;5035114;28;20037;-57
2021/09/04 06:16:27;;;;;;;11.35;5.13;;;;;;;;;;5036373;28;20051;-57
2021/09/04 06:18:53;;;;;;;9.13;4.55;;;;;;;;;;5035863;28;20056;-57
2021/09/04 06:21:19;;;;;;;10.43;5.10;;;;;;;;;;5036143;28;20351;-58
2021/09/04 06:23:45;;;;;;;10.43;4.35;;;;;;;;;;5034978;28;20451;-57
2021/09/04 06:26:11;;;;;;;9.88;4.80;;;;;;;;;;5035793;28;20029;-56
2021/09/04 06:28:38;;;;;;;12.77;5.97;;;;;;;;;;5034894;28;20112;-57
2021/09/04 06:31:04;;;;;;;14.70;6.07;;;;;;;;;;5035789;28;20513;-57
2021/09/04 06:33:30;;;;;;;9.43;5.07;;;;;;;;;;5035125;28;20053;-56
2021/09/04 06:35:56;;;;;;;10.25;5.65;;;;;;;;;;5034507;28;20090;-56
2021/09/04 06:38:21;;;;;;;8.82;5.10;;;;;;;;;;5035756;28;20354;-56
2021/09/04 06:40:48;;;;;;;9.88;5.32;;;;;;;;;;5035073;28;20033;-56
2021/09/04 06:43:14;;;;;;;11.52;5.90;;;;;;;;;;5034865;28;20115;-56
2021/09/04 06:45:40;;;;;;;14.85;5.80;;;;;;;;;;5030933;28;20037;-56
2021/09/04 06:48:07;;;;;;;12.57;6.65;;;;;;;;;;5035045;28;20037;-56
2021/09/04 06:50:33;;;;;;;12.20;6.05;;;;;;;;;;5035788;28;20021;-56
2021/09/04 06:53:01;;;;;;;14.18;7.97;;;;;;;;;;5035106;28;20079;-56
2021/09/04 06:55:27;;;;;;;11.77;6.20;;;;;;;;;;5032909;28;20521;-56
2021/09/04 06:57:53;;;;;;;14.18;7.20;;;;;;;;;;5034141;28;20080;-56
2021/09/04 07:00:20;;;;;;;12.70;6.57;;;;;;;;;;5034598;28;20021;-56
2021/09/04 07:02:46;;;;;;;14.95;7.70;;;;;;;;;;5035215;28;20029;-56
2021/09/04 07:05:11;;;;;;;15.88;6.95;;;;;;;;;;5034463;28;20096;-56
2021/09/04 07:07:37;;;;;;;12.57;7.32;;;;;;;;;;5035074;28;20398;-56
2021/09/04 07:10:04;;;;;;;13.88;6.30;;;;;;;;;;5035156;28;20033;-56
2021/09/04 07:12:30;;;;;;;12.88;7.30;;;;;;;;;;5034201;28;20485;-56
2021/09/04 07:14:56;;;;;;;15.38;7.78;;;;;;;;;;5034387;28;20025;-56
2021/09/04 07:17:22;;;;;;;12.50;7.40;;;;;;;;;;5033866;28;20030;-56
2021/09/04 07:19:48;;;;;;;11.68;7.00;;;;;;;;;;5034772;28;20550;-56
2021/09/04 07:22:14;;;;;;;12.95;7.90;;;;;;;;;;5034326;28;20041;-56
2021/09/04 07:24:40;;;;;;;15.35;7.05;;;;;;;;;;5034218;28;20037;-56
2021/09/04 07:27:06;;;;;;;14.68;6.90;;;;;;;;;;5034448;28;20040;-57
2021/09/04 07:29:32;;;;;;;22.30;8.60;;;;;;;;;;5033149;28;20030;-58
2021/09/04 07:31:58;;;;;;;28.27;12.70;;;;;;;;;;5034882;28;20032;-58
2021/09/04 07:34:24;;;;;;;27.67;12.55;;;;;;;;;;5033852;28;20356;-52
2021/09/04 07:36:50;;;;;;;26.25;12.85;;;;;;;;;;5034630;28;20029;-53
2021/09/04 07:39:16;;;;;;;43.90;17.35;;;;;;;;;;5034573;28;20091;-52
2021/09/04 07:41:42;;;;;;;22.27;10.10;;;;;;;;;;5034060;28;20022;-53
2021/09/04 07:44:08;;;;;;;27.95;10.90;;;;;;;;;;5032688;28;20348;-53
2021/09/04 07:46:34;;;;;;;22.92;10.27;;;;;;;;;;5034872;28;20072;-52
2021/09/04 07:49:00;;;;;;;20.50;9.00;;;;;;;;;;5034643;28;20029;-53
2021/09/04 07:51:26;;;;;;;19.80;9.65;;;;;;;;;;5034096;28;20383;-53
2021/09/04 07:53:52;;;;;;;29.23;12.85;;;;;;;;;;5033161;28;20422;-53
2021/09/04 07:56:18;;;;;;;47.90;18.13;;;;;;;;;;5034058;28;20032;-53
2021/09/04 07:58:44;;;;;;;59.25;22.75;;;;;;;;;;5033332;28;20041;-53
2021/09/04 08:01:10;;;;;;;57.88;19.75;;;;;;;;;;5034228;28;20332;-52
2021/09/04 08:03:36;;;;;;;55.20;17.70;;;;;;;;;;5033599;28;20383;-52
2021/09/04 08:06:02;;;;;;;90.72;26.80;;;;;;;;;;5033550;28;20021;-53
2021/09/04 08:08:28;;;;;;;79.88;23.13;;;;;;;;;;5034275;28;20447;-53
2021/09/04 08:10:55;;;;;;;48.45;16.65;;;;;;;;;;5033514;28;20029;-53
2021/09/04 08:13:21;;;;;;;42.13;15.20;;;;;;;;;;5028981;28;20037;-52
2021/09/04 08:15:48;;;;;;;44.45;12.48;;;;;;;;;;5032455;28;20471;-53
2021/09/04 08:18:14;;;;;;;33.83;14.68;;;;;;;;;;5033961;28;20029;-52
2021/09/04 08:20:41;;;;;;;35.72;12.65;;;;;;;;;;5033447;28;20021;-53
2021/09/04 08:23:07;;;;;;;28.27;11.48;;;;;;;;;;5033872;28;20320;-53
2021/09/04 08:25:37;;;;;;;37.47;12.98;;;;;;;;;;5032217;28;20029;-53
2021/09/04 08:28:07;;;;;;;32.20;12.55;;;;;;;;;;5033177;28;20044;-52
2021/09/04 08:30:33;;;;;;;27.58;11.70;;;;;;;;;;5033463;28;20087;-53
2021/09/04 08:32:59;;;;;;;30.65;11.38;;;;;;;;;;5033809;28;20033;-53
2021/09/04 08:35:25;;;;;;;32.40;12.80;;;;;;;;;;5032992;28;20021;-53
2021/09/04 08:37:53;;;;;;;57.85;15.50;;;;;;;;;;5033628;28;20374;-52
2021/09/04 08:40:20;;;;;;;37.40;13.95;;;;;;;;;;5032789;28;20026;-53
2021/09/04 08:42:46;;;;;;;41.10;13.65;;;;;;;;;;5033523;28;20398;-52
2021/09/04 08:45:12;;;;;;;59.30;19.65;;;;;;;;;;5031489;28;20443;-52
2021/09/04 08:47:38;;;;;;;40.67;14.52;;;;;;;;;;5033249;28;20048;-53
2021/09/04 08:50:04;;;;;;;66.68;19.35;;;;;;;;;;5033527;28;20021;-52
2021/09/04 08:52:31;;;;;;;48.90;16.30;;;;;;;;;;5033429;28;20033;-53
2021/09/04 08:54:57;;;;;;;35.08;12.45;;;;;;;;;;5032779;28;20032;-53
2021/09/04 08:57:23;;;;;;;18.33;9.57;;;;;;;;;;5033289;28;20034;-53
2021/09/04 08:59:50;;;;;;;44.80;16.13;;;;;;;;;;5030865;28;20036;-52
2021/09/04 09:02:16;;;;;;;22.15;10.05;;;;;;;;;;5032568;28;20029;-53
2021/09/04 09:04:42;;;;;;;16.38;8.55;;;;;;;;;;5032447;28;20074;-53
2021/09/04 09:07:09;;;;;;;17.90;8.88;;;;;;;;;;5033233;28;20041;-52
2021/09/04 09:09:36;;;;;;;53.70;18.73;;;;;;;;;;5033073;28;20028;-53
2021/09/04 09:12:09;;;;;;;52.45;19.08;;;;;;;;;;5032515;28;20447;-53
2021/09/04 09:14:53;;;;;;;55.20;19.02;;;;;;;;;;5031372;28;20025;-52
2021/09/04 09:17:23;;;;;;;62.88;20.90;;;;;;;;;;5032949;28;20029;-52
2021/09/04 09:19:49;;;;;;;37.60;13.38;;;;;;;;;;5033128;28;20064;-53
2021/09/04 09:22:15;;;;;;;40.03;15.35;;;;;;;;;;5032365;28;20029;-52
2021/09/04 09:24:42;;;;;;;18.85;10.00;;;;;;;;;;5032320;28;20034;-53
2021/09/04 09:30:13;;;;;;;12.75;6.78;;;;;;;;;;5020165;28;20045;-53
2021/09/04 09:32:52;;;;;;;19.95;9.07;;;;;;;;;;5029804;28;20083;-53
2021/09/04 09:35:18;;;;;;;10.75;6.18;;;;;;;;;;5032918;28;20071;-52
2021/09/04 09:37:50;;;;;;;12.65;6.68;;;;;;;;;;5032157;28;20112;-53
2021/09/04 09:40:23;;;;;;;13.27;6.53;;;;;;;;;;5032653;28;20103;-53
2021/09/04 09:42:49;;;;;;;12.75;6.35;;;;;;;;;;5025813;28;20033;-53
2021/09/04 09:45:15;;;;;;;13.45;6.68;;;;;;;;;;5020846;28;20347;-53
2021/09/04 09:47:51;;;;;;;9.93;4.75;;;;;;;;;;5032013;28;20099;-52
2021/09/04 09:50:17;;;;;;;9.82;5.18;;;;;;;;;;5033044;28;20037;-53
2021/09/04 09:52:44;;;;;;;11.25;5.40;;;;;;;;;;5012812;28;20022;-52
2021/09/04 09:55:11;;;;;;;13.82;5.47;;;;;;;;;;5013087;28;20088;-52
2021/09/04 09:57:37;;;;;;;10.85;6.07;;;;;;;;;;5015033;28;20032;-53
2021/09/04 10:00:03;;;;;;;10.52;5.95;;;;;;;;;;5031450;28;20336;-53
2021/09/04 10:02:29;;;;;;;12.30;5.55;;;;;;;;;;5032232;28;20079;-52
2021/09/04 10:04:56;;;;;;;8.98;4.78;;;;;;;;;;5032068;28;20029;-53
2021/09/04 10:07:22;;;;;;;7.88;4.45;;;;;;;;;;5031781;28;20533;-53
2021/09/04 10:09:50;;;;;;;8.93;4.78;;;;;;;;;;5032328;28;20379;-53
2021/09/04 10:12:16;;;;;;;6.60;4.80;;;;;;;;;;5031977;28;20025;-53
2021/09/04 10:14:42;;;;;;;10.93;4.78;;;;;;;;;;5022544;28;20064;-53
2021/09/04 10:17:09;;;;;;;9.50;4.93;;;;;;;;;;5031586;28;20069;-53
2021/09/04 10:19:36;;;;;;;10.68;5.30;;;;;;;;;;5032595;28;20029;-51
2021/09/04 10:22:03;;;;;;;12.07;4.80;;;;;;;;;;5032589;28;20049;-51
2021/09/04 10:24:46;;;;;;;12.82;4.65;;;;;;;;;;5031807;28;20351;-50
2021/09/04 10:27:12;;;;;;;11.43;5.22;;;;;;;;;;5031457;28;20482;-51
2021/09/04 10:29:42;;;;;;;11.55;4.70;;;;;;;;;;5030168;28;20099;-50
2021/09/04 10:32:08;;;;;;;10.23;5.03;;;;;;;;;;5032537;28;20037;-51
2021/09/04 10:34:42;;;;;;;13.65;5.38;;;;;;;;;;5033374;28;20037;-51
2021/09/04 10:37:14;;;;;;;10.77;4.45;;;;;;;;;;5035181;28;20026;-50
2021/09/04 10:39:46;;;;;;;9.15;4.65;;;;;;;;;;5035421;28;20022;-51
2021/09/04 10:42:14;;;;;;;10.07;4.20;;;;;;;;;;5035244;28;20036;-50
2021/09/04 10:44:47;;;;;;;7.78;4.55;;;;;;;;;;5034014;28;20664;-51
2021/09/04 10:47:14;;;;;;;8.10;4.25;;;;;;;;;;5034877;28;20037;-51
2021/09/04 10:49:40;;;;;;;10.80;5.65;;;;;;;;;;5034184;28;20079;-51
2021/09/04 10:52:07;;;;;;;8.23;4.25;;;;;;;;;;5035801;28;20398;-51
2021/09/04 10:54:39;;;;;;;10.15;5.03;;;;;;;;;;5035763;28;20029;-51
2021/09/04 10:57:15;;;;;;;8.00;4.20;;;;;;;;;;5034755;28;20025;-51
2021/09/04 10:59:57;;;;;;;8.85;4.05;;;;;;;;;;5034085;28;20017;-51
2021/09/04 11:02:23;;;;;;;10.35;4.38;;;;;;;;;;5035535;28;20030;-51
2021/09/04 11:04:56;;;;;;;7.88;4.25;;;;;;;;;;5035183;28;20482;-51
2021/09/04 11:07:41;;;;;;;10.75;5.03;;;;;;;;;;5034762;28;20478;-51
2021/09/04 11:10:22;;;;;;;10.27;5.32;;;;;;;;;;5035189;28;20033;-51
2021/09/04 11:13:04;;;;;;;8.15;3.85;;;;;;;;;;5034400;28;20379;-51
2021/09/04 11:15:30;;;;;;;6.95;3.90;;;;;;;;;;5034343;28;20125;-51
2021/09/04 11:17:56;;;;;;;7.07;4.05;;;;;;;;;;5034545;28;20033;-50
2021/09/04 11:20:22;;;;;;;7.35;3.55;;;;;;;;;;5035482;28;20022;-51
2021/09/04 11:22:49;;;;;;;8.82;4.53;;;;;;;;;;5034693;28;20024;-51
2021/09/04 11:25:16;;;;;;;7.55;4.22;;;;;;;;;;5035016;28;20021;-51
2021/09/04 11:27:45;;;;;;;8.63;3.70;;;;;;;;;;5033498;28;20099;-51
2021/09/04 11:30:15;;;;;;;7.78;4.30;;;;;;;;;;5033318;28;20446;-51
2021/09/04 11:32:41;;;;;;;8.70;4.28;;;;;;;;;;5035137;28;20443;-50
2021/09/04 11:35:08;;;;;;;8.93;5.07;;;;;;;;;;5035090;28;20029;-51
2021/09/04 11:37:41;;;;;;;9.45;4.68;;;;;;;;;;5034195;28;20064;-51
2021/09/04 11:40:08;;;;;;;7.90;4.20;;;;;;;;;;5034186;28;20487;-51
2021/09/04 11:42:35;;;;;;;5.65;3.85;;;;;;;;;;5034639;28;20034;-51
2021/09/04 11:45:07;;;;;;;6.13;3.25;;;;;;;;;;5033075;28;20029;-51
2021/09/04 11:47:34;;;;;;;5.90;2.85;;;;;;;;;;5033783;28;20033;-51
2021/09/04 11:50:01;;;;;;;7.82;3.75;;;;;;;;;;5033034;28;20017;-51
2021/09/04 11:52:34;;;;;;;9.32;3.97;;;;;;;;;;5033684;28;20418;-51
2021/09/04 11:55:06;;;;;;;9.30;3.97;;;;;;;;;;5034418;28;20018;-51
2021/09/04 11:57:33;;;;;;;9.50;3.63;;;;;;;;;;5033883;28;20021;-50
2021/09/04 12:00:04;;;;;;;8.18;4.05;;;;;;;;;;5033664;28;20032;-51
2021/09/04 12:02:31;;;;;;;5.75;3.20;;;;;;;;;;5033436;28;20033;-52
2021/09/04 12:05:02;;;;;;;6.93;4.00;;;;;;;;;;5034134;28;20025;-52
2021/09/04 12:07:28;;;;;;;9.02;4.10;;;;;;;;;;5033616;28;20049;-53
2021/09/04 12:09:55;;;;;;;7.75;4.05;;;;;;;;;;5033069;28;20021;-52
2021/09/04 12:12:24;;;;;;;8.00;3.97;;;;;;;;;;5033672;28;20044;-52
2021/09/04 12:14:50;;;;;;;7.35;4.22;;;;;;;;;;5032966;28;20026;-52
2021/09/04 12:17:19;;;;;;;8.35;4.75;;;;;;;;;;5032200;28;20034;-52
2021/09/04 12:19:45;;;;;;;6.53;3.53;;;;;;;;;;5034270;28;20045;-52
2021/09/04 12:22:11;;;;;;;8.77;3.90;;;;;;;;;;5034206;28;20031;-52
2021/09/04 12:24:37;;;;;;;8.02;3.85;;;;;;;;;;5033704;28;20026;-52
2021/09/04 12:27:07;;;;;;;6.63;3.78;;;;;;;;;;5032908;28;20478;-52
2021/09/04 12:29:33;;;;;;;5.55;3.75;;;;;;;;;;5032944;28;20029;-53
2021/09/04 12:32:07;;;;;;;8.30;3.33;;;;;;;;;;5032870;28;20041;-52
2021/09/04 12:34:33;;;;;;;13.85;3.80;;;;;;;;;;5033631;28;20366;-52
2021/09/04 12:36:59;;;;;;;10.32;4.70;;;;;;;;;;5032669;28;20032;-52
2021/09/04 12:39:27;;;;;;;6.68;3.63;;;;;;;;;;5033557;28;20025;-52
2021/09/04 12:42:00;;;;;;;14.43;4.00;;;;;;;;;;5032989;28;20064;-52
2021/09/04 12:44:35;;;;;;;7.03;3.50;;;;;;;;;;5033031;28;20427;-52
2021/09/04 12:47:05;;;;;;;8.85;4.40;;;;;;;;;;5024705;28;20132;-52
2021/09/04 12:49:32;;;;;;;6.15;3.72;;;;;;;;;;5033539;28;20022;-52
2021/09/04 12:51:58;;;;;;;8.10;3.80;;;;;;;;;;5033089;28;20030;-52
2021/09/04 12:54:32;;;;;;;8.77;3.65;;;;;;;;;;5033052;28;20067;-52
2021/09/04 12:57:24;;;;;;;9.05;3.47;;;;;;;;;;5031896;28;20033;-52
2021/09/04 13:00:09;;;;;;;5.00;3.30;;;;;;;;;;5031883;28;20533;-53
2021/09/04 13:02:44;;;;;;;8.82;3.42;;;;;;;;;;5032059;28;20061;-52
2021/09/04 13:05:11;;;;;;;8.48;4.20;;;;;;;;;;5033330;28;20039;-52
2021/09/04 13:07:39;;;;;;;9.35;3.75;;;;;;;;;;5032612;28;20049;-52
2021/09/04 13:10:06;;;;;;;9.57;3.90;;;;;;;;;;5032440;28;20056;-52
2021/09/04 13:12:32;;;;;;;6.07;3.42;;;;;;;;;;5033200;28;20079;-52
2021/09/04 13:14:58;;;;;;;8.57;3.92;;;;;;;;;;5032153;28;20437;-52
2021/09/04 13:17:24;;;;;;;10.70;4.38;;;;;;;;;;5031158;28;20124;-52
2021/09/04 13:19:50;;;;;;;14.80;4.40;;;;;;;;;;5033417;28;20017;-52
2021/09/04 13:22:16;;;;;;;7.53;3.60;;;;;;;;;;5032651;28;20095;-52
2021/09/04 13:24:42;;;;;;;9.98;3.38;;;;;;;;;;5032884;28;20034;-52
2021/09/04 13:27:08;;;;;;;7.05;4.10;;;;;;;;;;5032066;28;20033;-52
2021/09/04 13:29:34;;;;;;;6.43;3.28;;;;;;;;;;5032176;28;20033;-53
2021/09/04 13:32:01;;;;;;;7.80;4.22;;;;;;;;;;5031879;28;20050;-52
2021/09/04 13:34:28;;;;;;;6.78;3.88;;;;;;;;;;5032556;28;20448;-52
2021/09/04 13:36:54;;;;;;;8.77;3.60;;;;;;;;;;5032158;28;20040;-53
2021/09/04 13:39:20;;;;;;;6.25;3.42;;;;;;;;;;5032898;28;20034;-53
2021/09/04 13:41:47;;;;;;;9.35;3.70;;;;;;;;;;5032199;28;20095;-52
2021/09/04 13:44:13;;;;;;;7.47;3.53;;;;;;;;;;5032181;28;20442;-52
2021/09/04 13:46:39;;;;;;;5.63;3.45;;;;;;;;;;5031459;28;20041;-52
2021/09/04 13:49:05;;;;;;;6.10;3.35;;;;;;;;;;5031911;28;20324;-53
2021/09/04 13:51:32;;;;;;;7.00;2.92;;;;;;;;;;5032747;28;20355;-52
2021/09/04 13:53:58;;;;;;;5.70;3.05;;;;;;;;;;5032822;28;20036;-52
2021/09/04 13:56:24;;;;;;;6.75;3.10;;;;;;;;;;5032399;28;20429;-52
2021/09/04 13:58:51;;;;;;;6.65;3.53;;;;;;;;;;5031235;28;20124;-52
2021/09/04 14:01:17;;;;;;;10.00;3.28;;;;;;;;;;5032650;28;20037;-52
2021/09/04 14:03:43;;;;;;;5.38;3.28;;;;;;;;;;5031175;28;20036;-52
2021/09/04 14:06:09;;;;;;;4.45;2.72;;;;;;;;;;5032736;28;20018;-52
2021/09/04 14:08:35;;;;;;;4.32;2.67;;;;;;;;;;5031862;28;20092;-52
2021/09/04 14:11:01;;;;;;;5.88;3.13;;;;;;;;;;5036561;28;20022;-52
2021/09/04 14:13:27;;;;;;;4.70;2.40;;;;;;;;;;5035660;28;20057;-52
2021/09/04 14:15:53;;;;;;;4.65;2.97;;;;;;;;;;5036303;28;20021;-52
2021/09/04 14:18:19;;;;;;;6.85;2.67;;;;;;;;;;5034138;28;20022;-52
2021/09/04 14:20:45;;;;;;;5.60;3.42;;;;;;;;;;5036370;28;20018;-52
2021/09/04 14:23:11;;;;;;;7.00;2.85;;;;;;;;;;5035710;28;20088;-52
2021/09/04 14:25:37;;;;;;;5.03;2.65;;;;;;;;;;5036439;28;20337;-54
2021/09/04 14:28:04;;;;;;;4.93;2.78;;;;;;;;;;5035176;28;20247;-55
2021/09/04 14:30:30;;;;;;;4.03;2.50;;;;;;;;;;5035027;28;20072;-52
2021/09/04 14:32:56;;;;;;;4.78;2.67;;;;;;;;;;5034898;28;20379;-52
2021/09/04 14:35:22;;;;;;;8.05;3.17;;;;;;;;;;5036031;28;20029;-52
2021/09/04 14:37:48;;;;;;;3.75;2.60;;;;;;;;;;5034711;28;20053;-52